Time;durP1;ratioP1;P1;durP2;ratioP2;P2;SDS_P1;SDS_P2;PMS_P1;PMS_P2;Temp;Humidity;BMP_temperature;BMP_pressure;BME280_temperature;BME280_humidity;BME280_pressure;Samples;Min_cycle;Max_cycle;Signal;HPM_P1;HPM_P2
2023/12/02 00:02:36;;;;;;;6.07;2.23;;;;;5.30;94913.00;;;;4968537;28;20207;-65
2023/12/02 00:05:25;;;;;;;9.70;3.43;;;;;5.30;94909.00;;;;4968691;28;20208;-65
2023/12/02 00:08:14;;;;;;;6.40;2.43;;;;;5.40;94914.00;;;;4968562;28;20216;-63
2023/12/02 00:11:05;;;;;;;11.47;4.30;;;;;5.40;94901.00;;;;4964506;28;20238;-64
2023/12/02 00:13:54;;;;;;;7.57;2.80;;;;;5.40;94901.00;;;;4967909;28;20241;-65
2023/12/02 00:16:43;;;;;;;4.03;1.60;;;;;5.30;94909.00;;;;4966377;28;20215;-65
2023/12/02 00:19:32;;;;;;;4.47;1.80;;;;;5.40;94900.00;;;;4963503;28;20227;-64
2023/12/02 00:22:21;;;;;;;4.90;2.10;;;;;5.40;94893.00;;;;4971078;28;20220;-65
2023/12/02 00:25:10;;;;;;;6.80;2.50;;;;;5.40;94903.00;;;;4971311;28;20219;-64
2023/12/02 00:28:00;;;;;;;10.73;3.97;;;;;5.30;94905.00;;;;4970692;28;20203;-64
2023/12/02 00:30:50;;;;;;;5.67;2.30;;;;;5.30;94902.00;;;;4970580;28;20210;-65
2023/12/02 00:33:39;;;;;;;5.70;2.23;;;;;5.20;94904.00;;;;4966872;28;20203;-64
2023/12/02 00:36:28;;;;;;;8.77;3.23;;;;;5.00;94891.00;;;;4970341;28;20211;-65
2023/12/02 00:39:17;;;;;;;7.30;2.73;;;;;5.00;94882.00;;;;4967091;28;20242;-65
2023/12/02 00:42:07;;;;;;;12.47;4.73;;;;;4.90;94880.00;;;;4967878;28;20214;-65
2023/12/02 00:44:57;;;;;;;13.07;4.73;;;;;5.10;94880.00;;;;4967390;28;20199;-64
2023/12/02 00:47:46;;;;;;;6.80;2.63;;;;;5.20;94865.00;;;;4966045;28;20203;-65
2023/12/02 00:50:35;;;;;;;4.37;1.77;;;;;5.20;94857.00;;;;4969551;28;20206;-64
2023/12/02 00:53:24;;;;;;;4.13;1.63;;;;;5.30;94857.00;;;;4967864;28;20215;-64
2023/12/02 00:56:14;;;;;;;5.00;1.97;;;;;5.30;94874.00;;;;4968042;28;20227;-65
2023/12/02 00:59:03;;;;;;;10.23;3.77;;;;;5.30;94873.00;;;;4969830;28;20227;-65
2023/12/02 01:01:54;;;;;;;10.27;3.63;;;;;5.30;94870.00;;;;4966723;28;20555;-64
2023/12/02 01:04:43;;;;;;;3.37;1.37;;;;;5.30;94866.00;;;;4968175;28;20204;-64
2023/12/02 01:07:32;;;;;;;4.23;1.80;;;;;5.30;94881.00;;;;4969387;28;20207;-65
2023/12/02 01:10:21;;;;;;;8.70;3.13;;;;;5.20;94860.00;;;;4965366;28;20254;-65
2023/12/02 01:13:10;;;;;;;8.47;3.03;;;;;5.20;94875.00;;;;4969752;28;20590;-65
2023/12/02 01:15:59;;;;;;;12.83;4.57;;;;;5.20;94869.00;;;;4967094;28;20230;-64
2023/12/02 01:18:50;;;;;;;9.37;3.20;;;;;5.00;94875.00;;;;4969929;28;20713;-65
2023/12/02 01:21:39;;;;;;;6.13;2.23;;;;;5.00;94876.00;;;;4964113;28;20207;-65
2023/12/02 01:24:29;;;;;;;4.13;1.60;;;;;5.00;94882.00;;;;4970379;28;20227;-65
2023/12/02 01:27:18;;;;;;;7.73;2.80;;;;;5.20;94886.00;;;;4967945;28;20226;-65
2023/12/02 01:30:08;;;;;;;11.77;4.13;;;;;5.20;94879.00;;;;4969532;28;20227;-65
2023/12/02 01:32:57;;;;;;;13.97;4.87;;;;;5.30;94875.00;;;;4969451;28;20619;-64
2023/12/02 01:35:47;;;;;;;6.17;2.33;;;;;5.20;94857.00;;;;4966439;28;20254;-65
2023/12/02 01:38:36;;;;;;;7.83;2.87;;;;;5.20;94844.00;;;;4968067;28;20235;-64
2023/12/02 01:41:25;;;;;;;6.13;2.23;;;;;5.20;94872.00;;;;4968031;28;20211;-65
2023/12/02 01:44:15;;;;;;;7.17;2.57;;;;;5.10;94879.00;;;;4968484;28;20222;-65
2023/12/02 01:47:04;;;;;;;11.13;4.00;;;;;5.20;94872.00;;;;4967202;28;20204;-64
2023/12/02 01:49:54;;;;;;;6.47;2.37;;;;;5.20;94852.00;;;;4965723;28;20626;-65
2023/12/02 01:52:45;;;;;;;5.33;2.03;;;;;5.00;94860.00;;;;4966727;28;20204;-64
2023/12/02 01:55:34;;;;;;;8.60;2.93;;;;;5.10;94857.00;;;;4961883;28;20227;-63
2023/12/02 01:58:23;;;;;;;6.37;2.33;;;;;5.20;94849.00;;;;4967863;28;20211;-63
2023/12/02 02:01:12;;;;;;;7.33;2.60;;;;;5.20;94852.00;;;;4967002;28;20227;-64
2023/12/02 02:04:01;;;;;;;14.67;4.93;;;;;5.10;94858.00;;;;4969107;28;20218;-64
2023/12/02 02:06:50;;;;;;;8.50;3.00;;;;;5.20;94843.00;;;;4969187;28;20210;-63
2023/12/02 02:09:48;;;;;;;6.60;2.37;;;;;5.20;94838.00;;;;4964013;28;20235;-64
2023/12/02 02:12:37;;;;;;;6.30;2.27;;;;;5.10;94842.00;;;;4962523;28;20211;-63
2023/12/02 02:15:26;;;;;;;10.50;3.53;;;;;5.10;94847.00;;;;4966691;28;20222;-63
2023/12/02 02:18:15;;;;;;;8.17;2.90;;;;;5.10;94863.00;;;;4968489;28;20315;-64
2023/12/02 02:21:05;;;;;;;12.40;4.17;;;;;5.10;94850.00;;;;4962234;28;20203;-63
2023/12/02 02:23:55;;;;;;;7.40;2.57;;;;;5.10;94835.00;;;;4963760;28;20218;-64
2023/12/02 02:26:44;;;;;;;5.03;1.90;;;;;5.10;94819.00;;;;4965058;28;20198;-64
2023/12/02 02:29:33;;;;;;;5.77;2.27;;;;;5.10;94814.00;;;;4968999;28;20234;-63
2023/12/02 02:32:23;;;;;;;6.70;2.27;;;;;5.10;94789.00;;;;4968565;28;20206;-63
2023/12/02 02:35:12;;;;;;;8.13;2.90;;;;;5.10;94796.00;;;;4966446;28;20234;-64
2023/12/02 02:38:01;;;;;;;14.97;5.00;;;;;5.10;94800.00;;;;4968478;28;20234;-63
2023/12/02 02:40:52;;;;;;;5.87;2.20;;;;;5.10;94789.00;;;;4964872;28;20203;-64
2023/12/02 02:43:41;;;;;;;9.50;3.17;;;;;5.10;94782.00;;;;4961647;28;20200;-62
2023/12/02 02:46:30;;;;;;;11.03;3.80;;;;;5.10;94781.00;;;;4966518;28;20211;-64
2023/12/02 02:49:20;;;;;;;8.10;2.83;;;;;5.20;94780.00;;;;4968398;28;20242;-63
2023/12/02 02:52:09;;;;;;;15.83;5.10;;;;;5.20;94790.00;;;;4966009;28;20215;-63
2023/12/02 02:54:58;;;;;;;18.30;5.67;;;;;5.10;94779.00;;;;4968033;28;20206;-64
2023/12/02 02:57:48;;;;;;;9.10;3.13;;;;;5.10;94788.00;;;;4968583;28;20857;-63
2023/12/02 03:00:38;;;;;;;8.60;3.13;;;;;5.20;94788.00;;;;4967357;28;20203;-63
2023/12/02 03:03:27;;;;;;;8.00;3.60;;;;;4.90;94786.00;;;;4967820;28;20204;-63
2023/12/02 03:06:16;;;;;;;32.03;25.00;;;;;4.70;94792.00;;;;4966874;28;20427;-63
2023/12/02 03:09:07;;;;;;;11.83;4.13;;;;;4.90;94772.00;;;;4966583;28;20234;-63
2023/12/02 03:11:56;;;;;;;26.10;12.33;;;;;5.00;94767.00;;;;4966665;28;20199;-64
2023/12/02 03:14:46;;;;;;;6.90;2.43;;;;;5.00;94753.00;;;;4960538;28;20427;-63
2023/12/02 03:17:37;;;;;;;7.80;2.80;;;;;4.80;94772.00;;;;4967407;28;20356;-64
2023/12/02 03:20:26;;;;;;;8.43;2.87;;;;;4.90;94773.00;;;;4966504;28;20231;-63
2023/12/02 03:23:15;;;;;;;5.07;1.90;;;;;5.00;94772.00;;;;4968057;28;20207;-63
2023/12/02 03:26:04;;;;;;;35.90;21.03;;;;;5.10;94768.00;;;;4966793;28;20206;-63
2023/12/02 03:28:54;;;;;;;23.53;14.17;;;;;5.10;94764.00;;;;4970479;28;20572;-63
2023/12/02 03:31:45;;;;;;;7.90;2.90;;;;;5.10;94766.00;;;;4967817;28;20203;-64
2023/12/02 03:34:34;;;;;;;10.00;3.50;;;;;5.10;94767.00;;;;4971830;28;20441;-63
2023/12/02 03:37:23;;;;;;;17.13;12.23;;;;;5.10;94767.00;;;;4971270;28;20231;-63
2023/12/02 03:40:13;;;;;;;16.53;5.37;;;;;5.10;94771.00;;;;4968898;28;20458;-63
2023/12/02 03:43:02;;;;;;;18.47;5.93;;;;;4.90;94781.00;;;;4967317;28;20207;-63
2023/12/02 03:45:51;;;;;;;8.47;3.03;;;;;5.00;94760.00;;;;4966197;28;20975;-63
2023/12/02 03:48:41;;;;;;;8.17;2.80;;;;;4.60;94788.00;;;;4969178;28;20239;-63
2023/12/02 03:51:31;;;;;;;5.77;2.20;;;;;4.60;94781.00;;;;4966459;28;20199;-63
2023/12/02 03:54:20;;;;;;;7.40;2.73;;;;;4.90;94786.00;;;;4971137;28;20215;-64
2023/12/02 03:57:09;;;;;;;17.63;5.67;;;;;5.00;94785.00;;;;4969393;28;20238;-63
2023/12/02 03:59:58;;;;;;;17.27;5.53;;;;;4.90;94801.00;;;;4967803;28;20224;-63
2023/12/02 04:02:49;;;;;;;7.20;2.77;;;;;4.80;94798.00;;;;4968146;28;20222;-63
2023/12/02 04:05:39;;;;;;;8.53;3.90;;;;;5.00;94787.00;;;;4971592;28;20434;-64
2023/12/02 04:08:28;;;;;;;11.00;5.90;;;;;5.00;94780.00;;;;4964290;28;20239;-62
2023/12/02 04:11:17;;;;;;;35.17;15.33;;;;;4.90;94774.00;;;;4969974;28;20438;-63
2023/12/02 04:14:06;;;;;;;110.33;41.37;;;;;4.90;94778.00;;;;4967280;28;20203;-62
2023/12/02 04:16:55;;;;;;;6.90;2.60;;;;;4.80;94774.00;;;;4969226;28;20462;-63
2023/12/02 04:19:45;;;;;;;6.43;2.37;;;;;4.60;94751.00;;;;4967980;28;20227;-63
2023/12/02 04:22:36;;;;;;;5.67;2.20;;;;;4.70;94776.00;;;;4965786;28;20215;-63
2023/12/02 04:25:25;;;;;;;13.53;4.67;;;;;4.50;94771.00;;;;4970711;28;20211;-63
2023/12/02 04:28:14;;;;;;;7.27;2.60;;;;;4.70;94791.00;;;;4966897;28;20215;-62
2023/12/02 04:31:03;;;;;;;9.80;3.47;;;;;4.90;94784.00;;;;4969463;28;20685;-63
2023/12/02 04:33:52;;;;;;;6.40;2.33;;;;;5.00;94775.00;;;;4966817;28;20677;-63
2023/12/02 04:36:43;;;;;;;8.70;3.23;;;;;5.00;94790.00;;;;4969662;28;20466;-63
2023/12/02 04:39:33;;;;;;;7.20;2.67;;;;;4.90;94797.00;;;;4968053;28;20955;-63
2023/12/02 04:42:22;;;;;;;5.93;2.33;;;;;4.70;94804.00;;;;4968537;28;20932;-63
2023/12/02 04:45:11;;;;;;;14.17;5.00;;;;;4.70;94811.00;;;;4967713;28;20427;-62
2023/12/02 04:48:01;;;;;;;10.07;3.70;;;;;4.90;94800.00;;;;4970422;28;20443;-64
2023/12/02 04:50:50;;;;;;;6.70;2.43;;;;;4.90;94800.00;;;;4970656;28;20443;-63
2023/12/02 04:53:39;;;;;;;7.60;2.77;;;;;5.00;94786.00;;;;4965041;28;20423;-64
2023/12/02 04:56:30;;;;;;;6.53;2.50;;;;;4.90;94801.00;;;;4969890;28;20507;-63
2023/12/02 04:59:19;;;;;;;6.43;2.40;;;;;4.90;94784.00;;;;4969085;28;20465;-62
2023/12/02 05:02:09;;;;;;;13.57;4.70;;;;;5.00;94799.00;;;;4966521;28;20199;-64
2023/12/02 05:04:58;;;;;;;11.30;3.97;;;;;5.00;94789.00;;;;4968981;28;20200;-64
2023/12/02 05:07:47;;;;;;;6.70;2.40;;;;;4.70;94793.00;;;;4965991;28;20200;-63
2023/12/02 05:10:37;;;;;;;8.07;2.73;;;;;4.50;94788.00;;;;5000511;23;20245;-67
2023/12/02 05:13:27;;;;;;;7.43;2.50;;;;;4.00;94813.00;;;;4984217;28;20206;-69
2023/12/02 05:16:16;;;;;;;9.73;3.10;;;;;4.70;94805.00;;;;4980605;28;20593;-68
2023/12/02 05:19:06;;;;;;;13.57;4.30;;;;;4.90;94813.00;;;;4981627;28;20222;-68
2023/12/02 05:21:55;;;;;;;12.47;3.90;;;;;4.90;94809.00;;;;4995929;28;20245;-68
2023/12/02 05:24:44;;;;;;;9.03;2.87;;;;;4.90;94814.00;;;;4996183;28;20460;-69
2023/12/02 05:27:33;;;;;;;9.47;3.00;;;;;4.80;94808.00;;;;4985173;28;20225;-68
2023/12/02 05:30:23;;;;;;;8.97;2.87;;;;;4.70;94811.00;;;;4987056;28;20225;-69
2023/12/02 05:33:13;;;;;;;14.83;4.73;;;;;4.80;94805.00;;;;4992716;28;20218;-69
2023/12/02 05:36:02;;;;;;;10.43;3.27;;;;;4.70;94815.00;;;;4996325;28;20218;-68
2023/12/02 05:38:51;;;;;;;12.83;3.90;;;;;4.70;94820.00;;;;4998834;28;20206;-69
2023/12/02 05:41:42;;;;;;;11.17;3.47;;;;;4.70;94830.00;;;;4991530;28;20450;-68
2023/12/02 05:44:31;;;;;;;7.57;2.37;;;;;4.60;94829.00;;;;4992365;28;20194;-69
2023/12/02 05:47:22;;;;;;;8.37;2.63;;;;;4.60;94839.00;;;;4986167;28;20203;-69
2023/12/02 05:50:11;;;;;;;15.90;4.97;;;;;4.60;94824.00;;;;4989919;28;20222;-68
2023/12/02 05:53:00;;;;;;;12.93;3.87;;;;;4.60;94821.00;;;;4985451;28;20222;-69
2023/12/02 05:55:49;;;;;;;7.73;2.57;;;;;4.60;94826.00;;;;4983801;28;20590;-69
2023/12/02 05:58:38;;;;;;;10.30;3.07;;;;;4.60;94833.00;;;;4995288;28;20462;-69
2023/12/02 06:01:27;;;;;;;8.17;2.70;;;;;4.50;94833.00;;;;4988698;28;20205;-69
2023/12/02 06:04:19;;;;;;;10.03;3.13;;;;;4.30;94820.00;;;;4995581;28;20202;-69
2023/12/02 06:07:08;;;;;;;15.07;4.43;;;;;4.30;94824.00;;;;4986096;28;20613;-69
2023/12/02 06:09:57;;;;;;;8.77;2.83;;;;;4.30;94805.00;;;;4995884;28;20687;-69
2023/12/02 06:12:47;;;;;;;12.43;3.70;;;;;4.20;94816.00;;;;4986893;28;20201;-69
2023/12/02 06:15:36;;;;;;;6.67;2.13;;;;;4.20;94823.00;;;;4991681;28;20449;-69
2023/12/02 06:18:25;;;;;;;5.33;1.80;;;;;4.20;94815.00;;;;4985899;28;21029;-69
2023/12/02 06:21:16;;;;;;;21.20;6.07;;;;;4.20;94810.00;;;;4992905;28;20464;-69
2023/12/02 06:24:05;;;;;;;14.43;4.10;;;;;3.90;94807.00;;;;4987332;28;20434;-69
2023/12/02 06:26:55;;;;;;;6.57;2.10;;;;;3.60;94811.00;;;;4987379;28;20430;-69
2023/12/02 06:29:44;;;;;;;9.83;3.00;;;;;4.00;94796.00;;;;4983131;28;20454;-69
2023/12/02 06:32:33;;;;;;;16.00;4.50;;;;;4.00;94787.00;;;;4986125;28;20437;-69
2023/12/02 06:35:22;;;;;;;17.30;4.87;;;;;4.00;94806.00;;;;4987823;28;20948;-69
2023/12/02 06:38:13;;;;;;;24.27;6.80;;;;;3.80;94809.00;;;;4990049;28;20465;-68
2023/12/02 06:41:02;;;;;;;23.30;6.57;;;;;3.70;94812.00;;;;4987961;28;20441;-70
2023/12/02 06:43:51;;;;;;;37.33;26.27;;;;;3.80;94813.00;;;;4990591;28;20434;-70
2023/12/02 06:46:40;;;;;;;52.37;15.53;;;;;3.60;94802.00;;;;4982258;28;20430;-70
2023/12/02 06:49:30;;;;;;;7.50;2.30;;;;;3.10;94811.00;;;;4979055;28;20819;-69
2023/12/02 06:52:19;;;;;;;11.97;4.07;;;;;3.10;94800.00;;;;4986266;28;20856;-70
2023/12/02 06:55:11;;;;;;;70.40;25.67;;;;;3.20;94782.00;;;;4990019;28;20449;-70
2023/12/02 06:58:03;;;;;;;74.60;27.17;;;;;3.20;94791.00;;;;4987075;28;21010;-70
2023/12/02 07:00:52;;;;;;;9.53;2.97;;;;;3.50;94798.00;;;;4982809;28;20468;-70
2023/12/02 07:03:41;;;;;;;16.63;14.43;;;;;3.60;94804.00;;;;4998451;28;20422;-70
2023/12/02 07:06:31;;;;;;;142.27;54.97;;;;;3.70;94792.00;;;;4990191;28;20445;-70
2023/12/02 07:09:20;;;;;;;5.60;2.17;;;;;3.60;94814.00;;;;4987816;28;20473;-69
2023/12/02 07:12:11;;;;;;;14.33;5.17;;;;;3.80;94800.00;;;;4991906;28;20461;-70
2023/12/02 07:15:00;;;;;;;6.47;2.43;;;;;3.80;94789.00;;;;4996570;28;20955;-69
2023/12/02 07:17:49;;;;;;;6.73;2.60;;;;;3.50;94806.00;;;;4995442;28;20469;-70
2023/12/02 07:20:38;;;;;;;4.03;1.70;;;;;3.70;94798.00;;;;4985900;28;20441;-70
2023/12/02 07:23:28;;;;;;;5.23;2.00;;;;;3.70;94807.00;;;;4989801;28;20989;-69
2023/12/02 07:26:17;;;;;;;5.63;2.03;;;;;3.60;94802.00;;;;4995102;28;20446;-70
2023/12/02 07:29:08;;;;;;;11.17;4.10;;;;;3.60;94800.00;;;;4991795;28;20456;-70
2023/12/02 07:31:57;;;;;;;9.17;3.37;;;;;3.60;94800.00;;;;4991494;28;20199;-69
2023/12/02 07:34:46;;;;;;;8.77;3.33;;;;;3.60;94792.00;;;;4997010;28;20461;-70
2023/12/02 07:37:35;;;;;;;6.03;2.30;;;;;3.50;94808.00;;;;4989872;28;20438;-69
2023/12/02 07:40:24;;;;;;;9.27;3.57;;;;;3.40;94810.00;;;;4994219;28;20987;-69
2023/12/02 07:43:13;;;;;;;13.80;5.30;;;;;3.80;94807.00;;;;4987553;28;20430;-69
2023/12/02 07:46:04;;;;;;;13.30;5.03;;;;;3.70;94823.00;;;;4984917;28;20843;-69
2023/12/02 07:48:53;;;;;;;9.70;3.50;;;;;3.70;94812.00;;;;4999448;28;20962;-70
2023/12/02 07:51:42;;;;;;;6.93;2.73;;;;;3.90;94793.00;;;;4987307;28;20882;-69
2023/12/02 07:54:32;;;;;;;5.30;2.20;;;;;3.80;94798.00;;;;4984508;28;20418;-70
2023/12/02 07:57:21;;;;;;;5.27;2.20;;;;;3.90;94781.00;;;;4989170;28;20477;-70
2023/12/02 08:00:11;;;;;;;15.33;5.80;;;;;3.90;94786.00;;;;4986071;28;20465;-69
2023/12/02 08:03:03;;;;;;;9.40;3.47;;;;;3.90;94793.00;;;;4993889;28;20429;-69
2023/12/02 08:05:52;;;;;;;5.80;2.20;;;;;3.80;94814.00;;;;4996558;28;20449;-70
2023/12/02 08:08:41;;;;;;;5.30;2.10;;;;;3.90;94813.00;;;;4991321;28;20776;-69
2023/12/02 08:11:30;;;;;;;7.37;2.90;;;;;3.90;94809.00;;;;4988015;28;20422;-70
2023/12/02 08:14:19;;;;;;;4.87;2.10;;;;;3.90;94768.00;;;;4981452;28;20431;-70
2023/12/02 08:17:08;;;;;;;11.97;4.67;;;;;3.90;94778.00;;;;4986775;28;20492;-70
2023/12/02 08:19:59;;;;;;;6.40;2.60;;;;;3.70;94782.00;;;;4982519;28;20474;-70
2023/12/02 08:22:48;;;;;;;3.30;1.47;;;;;3.40;94779.00;;;;4985279;28;20442;-70
2023/12/02 08:25:37;;;;;;;6.50;2.53;;;;;3.60;94782.00;;;;4985265;28;20439;-70
2023/12/02 08:28:26;;;;;;;6.60;2.73;;;;;3.80;94791.00;;;;4982899;28;20986;-69
2023/12/02 08:31:16;;;;;;;11.07;4.60;;;;;3.80;94796.00;;;;4982078;28;20438;-69
2023/12/02 08:34:05;;;;;;;14.03;5.33;;;;;3.50;94808.00;;;;4985880;28;20434;-69
2023/12/02 08:36:56;;;;;;;4.90;2.17;;;;;3.70;94813.00;;;;4986602;28;20433;-70
2023/12/02 08:39:45;;;;;;;8.70;3.27;;;;;3.70;94815.00;;;;4982300;28;20479;-69
2023/12/02 08:42:34;;;;;;;9.57;3.73;;;;;3.90;94799.00;;;;4984982;28;20959;-71
2023/12/02 08:45:23;;;;;;;10.20;3.90;;;;;3.90;94788.00;;;;4983992;28;20493;-70
2023/12/02 08:48:12;;;;;;;8.93;3.63;;;;;4.00;94810.00;;;;4985513;28;20469;-70
2023/12/02 08:51:01;;;;;;;7.03;2.77;;;;;4.00;94822.00;;;;4989848;28;20984;-71
2023/12/02 08:53:56;;;;;;;5.90;2.43;;;;;4.00;94837.00;;;;4984713;28;20460;-70
2023/12/02 08:56:45;;;;;;;5.73;2.30;;;;;3.90;94849.00;;;;4987612;28;20442;-70
2023/12/02 08:59:34;;;;;;;4.43;1.93;;;;;3.90;94857.00;;;;4985077;28;20871;-70
2023/12/02 09:02:23;;;;;;;8.27;3.30;;;;;3.80;94821.00;;;;4983280;28;20458;-70
2023/12/02 09:05:12;;;;;;;13.87;5.50;;;;;3.80;94841.00;;;;4984134;28;20450;-69
2023/12/02 09:08:02;;;;;;;10.33;4.00;;;;;4.00;94836.00;;;;4984935;28;20429;-70
2023/12/02 09:10:52;;;;;;;5.43;2.13;;;;;4.00;94829.00;;;;4998087;28;20527;-70
2023/12/02 09:13:46;;;;;;;6.47;2.57;;;;;4.10;94833.00;;;;4993655;28;20434;-70
2023/12/02 09:16:35;;;;;;;10.40;4.07;;;;;4.10;94830.00;;;;4982619;28;21382;-70
2023/12/02 09:19:57;;;;;;;6.00;2.57;;;;;4.20;94828.00;;;;4980145;28;20875;-69
2023/12/02 09:22:48;;;;;;;5.57;2.30;;;;;4.20;94824.00;;;;4988276;28;20956;-70
2023/12/02 09:25:38;;;;;;;6.40;2.53;;;;;4.30;94816.00;;;;4986559;28;20437;-69
2023/12/02 09:28:29;;;;;;;7.97;3.07;;;;;4.30;94827.00;;;;4985830;28;20458;-69
2023/12/02 09:31:18;;;;;;;13.90;5.60;;;;;4.30;94842.00;;;;4980907;28;20445;-69
2023/12/02 09:34:50;;;;;;;14.57;5.57;;;;;4.40;94829.00;;;;4984574;28;20691;-70
2023/12/02 09:37:57;;;;;;;9.20;3.57;;;;;4.40;94820.00;;;;4991010;28;20993;-70
2023/12/02 09:41:14;;;;;;;4.63;1.93;;;;;4.20;94841.00;;;;4989095;28;20439;-70
2023/12/02 09:44:17;;;;;;;10.53;4.00;;;;;4.20;94815.00;;;;4980343;28;20449;-70
2023/12/02 09:47:10;;;;;;;8.30;3.07;;;;;4.10;94804.00;;;;4985355;28;20213;-70
2023/12/02 09:50:10;;;;;;;5.63;2.37;;;;;4.10;94777.00;;;;4986163;28;20457;-69
2023/12/02 09:53:08;;;;;;;5.03;2.03;;;;;4.20;94808.00;;;;4982308;28;20434;-69
2023/12/02 09:56:00;;;;;;;5.37;2.07;;;;;4.10;94811.00;;;;4986289;28;20484;-69
2023/12/02 09:58:53;;;;;;;10.10;3.70;;;;;4.00;94816.00;;;;4991498;28;20366;-69
2023/12/02 10:01:48;;;;;;;7.80;3.17;;;;;3.80;94821.00;;;;4984026;28;20438;-69
2023/12/02 10:04:45;;;;;;;7.07;2.87;;;;;4.10;94833.00;;;;4985699;28;20926;-69
2023/12/02 10:07:44;;;;;;;5.57;2.20;;;;;3.90;94864.00;;;;4979658;28;20441;-69
2023/12/02 10:10:40;;;;;;;5.27;2.13;;;;;4.00;94873.00;;;;4991860;28;20454;-69
2023/12/02 10:13:39;;;;;;;8.43;3.23;;;;;4.10;94855.00;;;;4987993;28;20210;-69
2023/12/02 10:16:31;;;;;;;7.80;3.03;;;;;4.20;94866.00;;;;4988003;28;20487;-70
2023/12/02 10:19:30;;;;;;;10.23;4.00;;;;;4.20;94868.00;;;;4984034;28;20477;-69
2023/12/02 10:22:22;;;;;;;10.93;4.30;;;;;4.20;94865.00;;;;4980274;28;20553;-70
2023/12/02 10:25:20;;;;;;;12.10;4.73;;;;;4.10;94867.00;;;;4980198;28;20435;-68
2023/12/02 10:28:17;;;;;;;11.80;4.60;;;;;4.30;94874.00;;;;4981531;28;20452;-69
2023/12/02 10:31:07;;;;;;;20.83;7.40;;;;;4.40;94856.00;;;;4983679;28;20582;-69
2023/12/02 10:34:01;;;;;;;11.03;4.07;;;;;4.40;94865.00;;;;4975750;28;21176;-69
2023/12/02 10:36:54;;;;;;;5.83;2.30;;;;;4.30;94878.00;;;;4978733;28;20201;-70
2023/12/02 10:39:46;;;;;;;11.07;4.03;;;;;4.40;94894.00;;;;4976240;28;20482;-69
2023/12/02 10:42:41;;;;;;;10.03;3.87;;;;;4.20;94879.00;;;;4976357;28;20458;-69
2023/12/02 10:45:31;;;;;;;9.27;3.60;;;;;3.90;94897.00;;;;4980533;28;20202;-69
2023/12/02 10:48:21;;;;;;;6.70;2.60;;;;;3.60;94882.00;;;;4981705;28;21643;-69
2023/12/02 10:51:13;;;;;;;11.93;4.53;;;;;3.50;94899.00;;;;4987158;28;21369;-70
2023/12/02 10:54:06;;;;;;;8.97;3.50;;;;;3.30;94901.00;;;;4983869;28;20441;-69
2023/12/02 10:57:04;;;;;;;4.40;1.90;;;;;3.50;94898.00;;;;4984562;28;20442;-69
2023/12/02 11:00:06;;;;;;;6.13;2.47;;;;;3.30;94902.00;;;;4985467;28;20847;-69
2023/12/02 11:03:02;;;;;;;8.27;3.13;;;;;3.40;94907.00;;;;4979441;28;20534;-69
2023/12/02 11:05:56;;;;;;;6.07;2.33;;;;;3.50;94925.00;;;;4981673;28;20449;-69
2023/12/02 11:08:49;;;;;;;7.77;3.03;;;;;3.50;94952.00;;;;4977208;28;21118;-70
2023/12/02 11:11:48;;;;;;;7.23;2.97;;;;;3.70;94985.00;;;;4980356;28;20971;-70
2023/12/02 11:14:41;;;;;;;8.53;3.30;;;;;3.90;95003.00;;;;4979190;28;22093;-69
2023/12/02 11:17:41;;;;;;;6.00;2.43;;;;;3.90;95030.00;;;;4979369;28;20446;-69
2023/12/02 11:20:39;;;;;;;8.47;3.43;;;;;3.90;95035.00;;;;4988242;28;20470;-70
2023/12/02 11:23:42;;;;;;;5.73;2.40;;;;;4.00;95025.00;;;;4984900;28;20437;-69
2023/12/02 11:26:37;;;;;;;6.83;2.77;;;;;4.00;95028.00;;;;4978162;28;20444;-69
2023/12/02 11:29:34;;;;;;;3.97;1.60;;;;;4.20;95013.00;;;;4982719;28;20465;-70
2023/12/02 11:32:27;;;;;;;5.50;2.23;;;;;4.20;94998.00;;;;4983736;28;20449;-70
2023/12/02 11:35:23;;;;;;;20.03;7.33;;;;;4.30;94977.00;;;;4984182;28;20426;-69
2023/12/02 11:38:18;;;;;;;11.20;4.27;;;;;4.30;94975.00;;;;4981759;28;20797;-69
2023/12/02 11:41:17;;;;;;;12.43;4.70;;;;;4.30;94986.00;;;;4982877;28;20473;-70
2023/12/02 11:44:17;;;;;;;14.43;5.43;;;;;4.40;94995.00;;;;4981721;28;20449;-69
2023/12/02 11:47:20;;;;;;;13.23;4.93;;;;;4.30;94997.00;;;;4982583;28;20456;-68
2023/12/02 11:50:22;;;;;;;11.97;4.53;;;;;4.30;94990.00;;;;4983319;28;20322;-69
2023/12/02 11:53:24;;;;;;;12.67;4.77;;;;;4.30;94960.00;;;;4987095;28;20210;-68
2023/12/02 11:56:17;;;;;;;13.70;5.17;;;;;4.50;94946.00;;;;4985628;28;20213;-69
2023/12/02 11:59:15;;;;;;;14.43;5.23;;;;;4.60;94947.00;;;;4981587;28;20231;-66
2023/12/02 12:02:13;;;;;;;9.33;3.50;;;;;4.50;94931.00;;;;4987490;28;20198;-68
2023/12/02 12:05:18;;;;;;;6.07;2.30;;;;;4.70;94941.00;;;;4986481;28;20422;-68
2023/12/02 12:08:13;;;;;;;12.77;4.80;;;;;4.70;94937.00;;;;4990825;28;20679;-68
2023/12/02 12:11:04;;;;;;;5.33;2.20;;;;;4.40;94938.00;;;;4994562;28;20434;-67
2023/12/02 12:13:54;;;;;;;6.80;2.67;;;;;4.10;94948.00;;;;4984988;28;20594;-69
2023/12/02 12:16:43;;;;;;;8.17;3.10;;;;;4.40;94974.00;;;;4991508;28;20974;-69
2023/12/02 12:19:34;;;;;;;5.80;2.20;;;;;4.50;94997.00;;;;4989722;28;20229;-69
2023/12/02 12:22:23;;;;;;;5.63;2.23;;;;;4.30;95012.00;;;;4985933;28;20206;-68
2023/12/02 12:25:12;;;;;;;10.37;3.83;;;;;4.10;95010.00;;;;4987251;28;20446;-71
2023/12/02 12:28:02;;;;;;;5.70;2.10;;;;;4.30;95048.00;;;;4981054;28;20664;-69
2023/12/02 12:30:52;;;;;;;6.70;2.63;;;;;4.30;95084.00;;;;4984903;28;20931;-69
2023/12/02 12:33:41;;;;;;;7.70;2.90;;;;;4.20;95086.00;;;;4983586;28;20199;-68
2023/12/02 12:36:32;;;;;;;6.47;2.47;;;;;4.20;95093.00;;;;4985629;28;20241;-70
2023/12/02 12:39:21;;;;;;;13.10;5.10;;;;;4.20;95069.00;;;;4984914;28;20218;-68
2023/12/02 12:42:11;;;;;;;13.93;5.07;;;;;4.30;95032.00;;;;4983205;28;20238;-69
2023/12/02 12:45:00;;;;;;;7.00;2.70;;;;;4.30;94987.00;;;;4983713;28;20210;-69
2023/12/02 12:47:50;;;;;;;7.90;3.13;;;;;4.10;94965.00;;;;4985592;28;20199;-69
2023/12/02 12:50:39;;;;;;;5.13;2.00;;;;;4.20;94970.00;;;;4985355;28;20735;-70
2023/12/02 12:53:32;;;;;;;7.27;2.77;;;;;4.30;94959.00;;;;4983183;28;20438;-69
2023/12/02 12:56:34;;;;;;;10.80;4.20;;;;;4.20;94972.00;;;;4980389;28;20214;-69
2023/12/02 12:59:26;;;;;;;4.37;1.90;;;;;4.20;94990.00;;;;4984589;28;20241;-69
2023/12/02 13:02:33;;;;;;;16.10;6.07;;;;;4.30;94993.00;;;;4979574;28;20470;-69
2023/12/02 13:05:23;;;;;;;14.30;5.57;;;;;4.00;94994.00;;;;4988061;28;20695;-70
2023/12/02 13:08:18;;;;;;;12.70;4.77;;;;;4.40;95039.00;;;;4989640;28;20210;-70
2023/12/02 13:11:09;;;;;;;13.40;4.90;;;;;4.20;95048.00;;;;4982042;28;20495;-70
2023/12/02 13:14:07;;;;;;;6.40;2.43;;;;;4.40;95066.00;;;;4984186;28;20209;-69
2023/12/02 13:16:57;;;;;;;6.60;2.50;;;;;4.40;95050.00;;;;4992645;28;20232;-69
2023/12/02 13:19:47;;;;;;;6.50;2.50;;;;;4.40;95058.00;;;;4993161;28;20729;-69
2023/12/02 13:22:37;;;;;;;4.90;2.03;;;;;4.40;95048.00;;;;4983744;28;20684;-68
2023/12/02 13:25:29;;;;;;;10.33;3.87;;;;;4.50;95044.00;;;;4993527;28;20210;-69
2023/12/02 13:28:25;;;;;;;11.80;4.50;;;;;4.40;95047.00;;;;4987404;28;20218;-69
2023/12/02 13:31:15;;;;;;;13.70;5.10;;;;;4.40;95050.00;;;;4985386;28;20203;-69
2023/12/02 13:34:11;;;;;;;9.13;3.47;;;;;4.40;95044.00;;;;4987886;28;20205;-69
2023/12/02 13:37:01;;;;;;;9.87;3.77;;;;;4.30;95039.00;;;;4985249;28;20209;-69
2023/12/02 13:39:56;;;;;;;9.20;3.37;;;;;4.40;95034.00;;;;4985916;28;20468;-69
2023/12/02 13:42:51;;;;;;;5.67;2.30;;;;;4.10;95015.00;;;;4988682;28;20684;-69
2023/12/02 13:45:44;;;;;;;5.20;2.17;;;;;4.20;95021.00;;;;4990625;28;20446;-70
2023/12/02 13:48:41;;;;;;;6.20;2.50;;;;;4.20;95012.00;;;;4985586;28;20218;-70
2023/12/02 13:51:32;;;;;;;7.97;2.97;;;;;4.10;95016.00;;;;4985961;28;20202;-69
2023/12/02 13:54:27;;;;;;;11.07;4.60;;;;;3.90;95019.00;;;;4982993;28;20710;-70
2023/12/02 13:57:22;;;;;;;12.27;4.63;;;;;4.10;95022.00;;;;4986616;28;20206;-69
2023/12/02 14:00:12;;;;;;;10.93;4.07;;;;;4.00;95030.00;;;;4980538;28;20289;-70
2023/12/02 14:03:11;;;;;;;5.97;2.37;;;;;4.00;95046.00;;;;4986675;28;20469;-69
2023/12/02 14:06:07;;;;;;;7.07;2.70;;;;;4.00;95052.00;;;;4986262;28;21131;-69
2023/12/02 14:08:58;;;;;;;8.23;3.03;;;;;3.90;95073.00;;;;4985247;28;20458;-69
2023/12/02 14:12:00;;;;;;;5.50;2.27;;;;;4.00;95073.00;;;;4985403;28;20430;-70
2023/12/02 14:15:12;;;;;;;5.83;2.33;;;;;4.00;95086.00;;;;4987521;28;20429;-69
2023/12/02 14:18:15;;;;;;;3.57;1.50;;;;;4.10;95110.00;;;;4983785;28;20451;-70
2023/12/02 14:21:09;;;;;;;6.53;2.40;;;;;3.90;95131.00;;;;4980696;28;20522;-67
2023/12/02 14:24:42;;;;;;;3.73;1.50;;;;;4.10;95149.00;;;;4984514;28;20222;-69
2023/12/02 14:27:46;;;;;;;3.63;1.63;;;;;3.90;95148.00;;;;4967899;28;20461;-69